Time;durP1;ratioP1;P1;durP2;ratioP2;P2;SDS_P1;SDS_P2;PMS_P1;PMS_P2;Temp;Humidity;BMP_temperature;BMP_pressure;BME280_temperature;BME280_humidity;BME280_pressure;Samples;Min_cycle;Max_cycle;Signal;HPM_P1;HPM_P2
2022/04/05 00:00:09;;;;;;;12.10;9.13;;;6.20;99.90;;;;;;5010999;28;20696;-78
2022/04/05 00:02:36;;;;;;;12.88;9.65;;;6.20;99.90;;;;;;5005372;28;20216;-78
2022/04/05 00:05:03;;;;;;;18.13;11.57;;;6.20;99.90;;;;;;5005594;28;20565;-78
2022/04/05 00:07:31;;;;;;;14.55;10.88;;;6.20;99.90;;;;;;5006932;28;20221;-80
2022/04/05 00:09:57;;;;;;;9.65;7.38;;;6.20;99.90;;;;;;5006901;28;20212;-78
2022/04/05 00:12:24;;;;;;;10.10;6.85;;;6.00;99.90;;;;;;5004027;28;20327;-79
2022/04/05 00:14:51;;;;;;;7.68;5.63;;;5.60;99.90;;;;;;5005814;28;20201;-78
2022/04/05 00:17:18;;;;;;;5.38;4.88;;;5.50;99.90;;;;;;5004581;28;20252;-80
2022/04/05 00:19:45;;;;;;;3.78;3.47;;;5.40;99.90;;;;;;5001961;28;20208;-78
2022/04/05 00:22:12;;;;;;;4.40;3.00;;;5.30;99.90;;;;;;5003977;28;20229;-79
2022/04/05 00:24:40;;;;;;;8.38;3.28;;;5.20;99.90;;;;;;5004784;28;20221;-79
2022/04/05 00:27:06;;;;;;;4.55;3.05;;;5.20;99.90;;;;;;5002373;28;20268;-78
2022/04/05 00:29:33;;;;;;;4.40;3.20;;;5.20;99.90;;;;;;5001752;28;20213;-80
2022/04/05 00:31:59;;;;;;;3.65;2.75;;;5.20;99.90;;;;;;4998069;28;20205;-81
2022/04/05 00:34:26;;;;;;;5.85;3.15;;;5.20;99.90;;;;;;4997311;28;20660;-81
2022/04/05 00:36:53;;;;;;;3.60;2.70;;;5.20;99.90;;;;;;4997058;28;20228;-81
2022/04/05 00:39:20;;;;;;;4.00;2.90;;;5.30;99.90;;;;;;4996885;28;20204;-80
2022/04/05 00:41:49;;;;;;;3.55;2.72;;;5.30;99.90;;;;;;4996770;28;20197;-81
2022/04/05 00:44:15;;;;;;;8.30;3.50;;;5.20;99.90;;;;;;4996527;28;20680;-80
2022/04/05 00:46:42;;;;;;;6.07;3.20;;;5.30;99.90;;;;;;4997112;28;20297;-79
2022/04/05 00:49:15;;;;;;;4.35;3.95;;;5.40;99.90;;;;;;5004915;28;20251;-79
2022/04/05 00:51:41;;;;;;;6.50;3.92;;;5.30;99.90;;;;;;5005834;28;20197;-79
2022/04/05 00:54:10;;;;;;;6.53;4.00;;;5.40;99.90;;;;;;5004531;28;20216;-79
2022/04/05 00:56:37;;;;;;;4.15;3.75;;;5.50;99.90;;;;;;5003873;28;20220;-80
2022/04/05 00:59:07;;;;;;;4.30;3.88;;;4.80;99.90;;;;;;5004748;28;20583;-80
2022/04/05 01:01:33;;;;;;;4.50;4.10;;;5.50;99.90;;;;;;5007846;28;20560;-81
2022/04/05 01:04:01;;;;;;;10.60;4.78;;;5.50;99.90;;;;;;5006617;28;20204;-80
2022/04/05 01:06:31;;;;;;;9.65;5.00;;;5.60;99.90;;;;;;5003122;28;20315;-80
2022/04/05 01:08:58;;;;;;;9.40;6.30;;;5.60;99.90;;;;;;5003067;28;20205;-80
2022/04/05 01:11:25;;;;;;;8.07;5.85;;;5.60;99.90;;;;;;5003584;28;20245;-80
2022/04/05 01:13:52;;;;;;;8.80;6.00;;;5.70;99.90;;;;;;5004706;28;20243;-80
2022/04/05 01:16:20;;;;;;;13.43;6.68;;;5.70;99.90;;;;;;5004672;28;20229;-81
2022/04/05 01:18:48;;;;;;;10.13;6.70;;;5.80;99.90;;;;;;5003808;28;20232;-81
2022/04/05 01:21:15;;;;;;;7.43;6.65;;;5.80;99.90;;;;;;5002469;28;20220;-80
2022/04/05 01:24:05;;;;;;;10.30;6.72;;;5.80;99.90;;;;;;5004985;28;20215;-81
2022/04/05 01:26:38;;;;;;;10.35;5.95;;;5.80;99.90;;;;;;5002358;28;20236;-80
2022/04/05 01:29:05;;;;;;;9.15;6.63;;;5.80;99.90;;;;;;5003048;28;20217;-80
2022/04/05 01:31:36;;;;;;;11.15;5.50;;;5.80;99.90;;;;;;5003465;28;20304;-80
2022/04/05 01:34:02;;;;;;;7.30;5.68;;;5.80;99.90;;;;;;5002975;28;20223;-79
2022/04/05 01:36:29;;;;;;;6.70;4.55;;;5.80;99.90;;;;;;5003935;28;20252;-80
2022/04/05 01:38:57;;;;;;;8.10;3.75;;;5.80;99.90;;;;;;5004186;28;20239;-81
2022/04/05 01:41:24;;;;;;;6.35;2.40;;;5.80;99.90;;;;;;5003536;28;20255;-81
2022/04/05 01:43:50;;;;;;;2.83;2.22;;;5.80;99.90;;;;;;5004218;28;20202;-80
2022/04/05 01:46:17;;;;;;;4.47;2.50;;;5.80;99.90;;;;;;5002770;28;20228;-81
2022/04/05 01:48:43;;;;;;;5.57;2.15;;;5.70;99.90;;;;;;5002544;28;20619;-80
2022/04/05 01:51:10;;;;;;;8.57;2.50;;;5.60;99.90;;;;;;5002805;28;20247;-80
2022/04/05 01:53:37;;;;;;;5.93;2.10;;;5.60;99.90;;;;;;5002814;28;20205;-80
2022/04/05 01:56:05;;;;;;;3.45;2.25;;;5.60;99.90;;;;;;5003474;28;20221;-81
2022/04/05 01:58:31;;;;;;;3.05;1.90;;;5.60;99.90;;;;;;5003342;28;20209;-79
2022/04/05 02:01:00;;;;;;;3.40;1.50;;;5.60;99.90;;;;;;5004710;28;20247;-79
2022/04/05 02:03:26;;;;;;;4.82;1.67;;;5.50;99.90;;;;;;5000668;28;20212;-79
2022/04/05 02:05:53;;;;;;;4.03;1.63;;;5.50;99.90;;;;;;5003860;28;20248;-79
2022/04/05 02:08:19;;;;;;;5.25;2.05;;;5.50;99.90;;;;;;5005046;28;20204;-80
2022/04/05 02:10:46;;;;;;;2.38;1.85;;;5.50;99.90;;;;;;5004066;28;20212;-80
2022/04/05 02:13:14;;;;;;;5.20;2.20;;;5.70;99.90;;;;;;5004020;28;20212;-79
2022/04/05 02:15:40;;;;;;;2.70;1.75;;;5.50;99.90;;;;;;5003494;28;20229;-80
2022/04/05 02:18:07;;;;;;;2.50;1.70;;;5.50;99.90;;;;;;4998976;28;20216;-80
2022/04/05 02:20:34;;;;;;;2.45;2.00;;;5.50;99.90;;;;;;4998801;28;20213;-80
2022/04/05 02:23:01;;;;;;;5.15;2.15;;;5.50;99.90;;;;;;4998630;28;20212;-80
2022/04/05 02:25:27;;;;;;;5.20;2.55;;;5.50;99.90;;;;;;4998859;28;20268;-80
2022/04/05 02:27:54;;;;;;;10.63;2.60;;;5.50;99.90;;;;;;4999210;28;20245;-81
2022/04/05 02:30:22;;;;;;;3.83;2.45;;;5.50;99.90;;;;;;4998687;28;20205;-81
2022/04/05 02:32:48;;;;;;;5.50;2.13;;;5.50;99.90;;;;;;4999051;28;20236;-80
2022/04/05 02:35:15;;;;;;;4.43;2.95;;;5.60;99.90;;;;;;4998474;28;20213;-79
2022/04/05 02:37:41;;;;;;;4.45;2.53;;;5.50;99.90;;;;;;4998603;28;20255;-79
2022/04/05 02:40:09;;;;;;;11.38;2.10;;;5.50;99.90;;;;;;4998673;28;20256;-80
2022/04/05 02:42:36;;;;;;;7.43;2.45;;;5.60;99.90;;;;;;4998562;28;20578;-80
2022/04/05 02:45:02;;;;;;;8.88;3.05;;;5.50;99.90;;;;;;4998432;28;20205;-80
2022/04/05 02:47:30;;;;;;;3.72;2.00;;;5.50;99.90;;;;;;4998574;28;20233;-80
2022/04/05 02:49:57;;;;;;;2.95;2.35;;;5.50;99.90;;;;;;4998707;28;20283;-80
2022/04/05 02:52:23;;;;;;;2.75;2.00;;;5.50;99.90;;;;;;5005584;28;20205;-78
2022/04/05 02:54:50;;;;;;;3.45;1.92;;;5.50;99.90;;;;;;5009203;28;20201;-78
2022/04/05 02:57:18;;;;;;;14.93;2.53;;;5.50;99.90;;;;;;5007138;28;20248;-80
2022/04/05 02:59:45;;;;;;;4.63;2.00;;;5.50;99.90;;;;;;4998028;28;20347;-80
2022/04/05 03:02:11;;;;;;;3.60;2.85;;;5.50;99.90;;;;;;4998238;28;20260;-80
2022/04/05 03:04:39;;;;;;;4.53;2.55;;;5.40;99.90;;;;;;4997346;28;20702;-80
2022/04/05 03:07:06;;;;;;;5.13;2.45;;;5.50;99.90;;;;;;4999764;28;20225;-78
2022/04/05 03:09:32;;;;;;;3.35;1.67;;;5.50;99.90;;;;;;5005241;28;20305;-78
2022/04/05 03:11:59;;;;;;;2.85;1.63;;;5.50;99.90;;;;;;5005167;28;20568;-78
2022/04/05 03:14:25;;;;;;;6.88;2.42;;;5.50;99.90;;;;;;5006271;28;20216;-80
2022/04/05 03:16:52;;;;;;;12.10;2.60;;;5.50;99.90;;;;;;5007000;28;20247;-78
2022/04/05 03:19:18;;;;;;;5.53;1.92;;;5.50;99.90;;;;;;5009142;28;20209;-78
2022/04/05 03:21:46;;;;;;;10.05;2.40;;;5.50;99.90;;;;;;5008198;28;20640;-79
2022/04/05 03:24:13;;;;;;;5.85;3.38;;;5.40;99.90;;;;;;5007874;28;20712;-79
2022/04/05 03:26:39;;;;;;;3.13;2.33;;;5.50;99.90;;;;;;5011895;28;20244;-79
2022/04/05 03:29:06;;;;;;;5.90;2.92;;;5.50;99.90;;;;;;5010445;28;20209;-78
2022/04/05 03:31:33;;;;;;;4.63;2.47;;;5.50;99.90;;;;;;5008271;28;20212;-78
2022/04/05 03:33:59;;;;;;;8.73;1.85;;;5.40;99.90;;;;;;5009415;28;20197;-78
2022/04/05 03:36:26;;;;;;;7.97;2.30;;;5.40;99.90;;;;;;5002710;28;20666;-79
2022/04/05 03:38:54;;;;;;;8.98;2.50;;;5.40;99.90;;;;;;5002914;28;20552;-79
2022/04/05 03:41:21;;;;;;;6.43;2.00;;;5.40;99.90;;;;;;5002023;28;20201;-79
2022/04/05 03:43:47;;;;;;;3.53;2.30;;;5.30;99.90;;;;;;5000934;28;20232;-79
2022/04/05 03:46:14;;;;;;;3.28;1.80;;;5.40;99.90;;;;;;5001043;28;20220;-79
2022/04/05 03:48:42;;;;;;;2.97;1.90;;;5.40;99.90;;;;;;5000071;28;20196;-79
2022/04/05 03:51:09;;;;;;;4.45;2.33;;;5.40;99.90;;;;;;4997742;28;20676;-80
2022/04/05 03:53:36;;;;;;;5.00;2.50;;;5.30;99.90;;;;;;4997756;28;20311;-80
2022/04/05 03:56:04;;;;;;;6.32;2.30;;;5.40;99.90;;;;;;4997001;28;20588;-79
2022/04/05 03:58:31;;;;;;;3.83;2.20;;;5.40;99.90;;;;;;4997140;28;20263;-79
2022/04/05 04:00:57;;;;;;;6.45;2.08;;;5.40;99.90;;;;;;4996767;28;20201;-79
2022/04/05 04:03:24;;;;;;;8.45;3.35;;;5.40;99.90;;;;;;4996725;28;20208;-77
2022/04/05 04:05:50;;;;;;;9.52;2.10;;;5.30;99.90;;;;;;5002037;28;20225;-79
2022/04/05 04:08:17;;;;;;;2.63;1.58;;;5.40;99.90;;;;;;5001317;28;20680;-78
2022/04/05 04:10:43;;;;;;;7.35;2.00;;;5.40;99.90;;;;;;5002348;28;20236;-78
2022/04/05 04:13:11;;;;;;;4.43;1.85;;;5.40;99.90;;;;;;5005368;28;20205;-78
2022/04/05 04:15:38;;;;;;;3.75;1.80;;;5.60;99.90;;;;;;5006629;28;20575;-78
2022/04/05 04:18:04;;;;;;;5.15;2.20;;;5.40;99.90;;;;;;5002429;28;20236;-80
2022/04/05 04:20:31;;;;;;;8.30;2.22;;;5.40;99.90;;;;;;4997584;28;20268;-80
2022/04/05 04:22:58;;;;;;;10.30;2.30;;;5.60;99.90;;;;;;4999915;28;20635;-78
2022/04/05 04:25:24;;;;;;;8.48;2.22;;;5.10;99.90;;;;;;4996058;28;20205;-79
2022/04/05 04:27:51;;;;;;;6.93;1.90;;;5.30;99.90;;;;;;4997530;28;20320;-80
2022/04/05 04:30:19;;;;;;;5.88;1.88;;;5.30;99.90;;;;;;4996165;28;20263;-79
2022/04/05 04:32:45;;;;;;;8.35;2.63;;;5.30;99.90;;;;;;4997046;28;20687;-79
2022/04/05 04:35:12;;;;;;;8.98;2.67;;;5.30;99.90;;;;;;4997596;28;20213;-79
2022/04/05 04:37:39;;;;;;;9.63;2.28;;;5.30;99.90;;;;;;4998560;28;20225;-80
2022/04/05 04:40:07;;;;;;;6.65;3.17;;;5.30;99.90;;;;;;4997535;28;20215;-80
2022/04/05 04:42:34;;;;;;;7.82;2.83;;;5.30;99.90;;;;;;5005410;28;20288;-78
2022/04/05 04:45:01;;;;;;;6.40;2.10;;;5.30;99.90;;;;;;5010061;28;20201;-78
2022/04/05 04:47:29;;;;;;;3.40;2.28;;;5.30;99.90;;;;;;5008215;28;20645;-78
2022/04/05 04:49:55;;;;;;;3.15;1.70;;;5.30;99.90;;;;;;5001525;28;20205;-79
2022/04/05 04:52:25;;;;;;;6.20;2.15;;;5.20;99.90;;;;;;4998406;28;20201;-80
2022/04/05 04:54:51;;;;;;;3.95;2.28;;;5.20;99.90;;;;;;4996665;28;20591;-80
2022/04/05 04:57:18;;;;;;;4.10;2.50;;;5.30;99.90;;;;;;4998433;28;20221;-80
2022/04/05 04:59:45;;;;;;;5.47;2.47;;;5.30;99.90;;;;;;4997820;28;20267;-79
2022/04/05 05:02:12;;;;;;;7.50;3.22;;;5.40;99.90;;;;;;4997601;28;20244;-79
2022/04/05 05:04:39;;;;;;;2.90;2.28;;;5.30;99.90;;;;;;4997006;28;20200;-80
2022/04/05 05:07:06;;;;;;;8.07;2.75;;;5.30;99.90;;;;;;4997039;28;20264;-80
2022/04/05 05:09:33;;;;;;;9.95;3.72;;;5.30;99.90;;;;;;4998501;28;20212;-79
2022/04/05 05:12:00;;;;;;;13.05;2.67;;;5.30;99.90;;;;;;4998608;28;20308;-80
2022/04/05 05:14:27;;;;;;;5.20;2.03;;;5.30;99.90;;;;;;4998156;28;20641;-79
2022/04/05 05:16:54;;;;;;;7.00;1.90;;;5.40;99.90;;;;;;4997140;28;20239;-80
2022/04/05 05:19:20;;;;;;;6.93;2.40;;;5.40;99.90;;;;;;4996400;28;20201;-79
2022/04/05 05:21:49;;;;;;;4.63;2.55;;;5.30;99.90;;;;;;4999221;28;20656;-80
2022/04/05 05:24:15;;;;;;;5.53;2.17;;;5.50;99.90;;;;;;4997058;28;20215;-81
2022/04/05 05:26:42;;;;;;;5.45;2.65;;;5.40;99.90;;;;;;5000682;28;20229;-79
2022/04/05 05:29:08;;;;;;;8.00;2.58;;;5.50;99.90;;;;;;4995142;28;20301;-79
2022/04/05 05:31:35;;;;;;;6.18;2.38;;;5.50;99.90;;;;;;4995738;28;20228;-79
2022/04/05 05:34:02;;;;;;;11.50;4.60;;;5.50;99.90;;;;;;4995471;28;20236;-80
2022/04/05 05:36:28;;;;;;;4.85;2.70;;;5.50;99.90;;;;;;4996586;28;20628;-79
2022/04/05 05:38:56;;;;;;;11.32;2.70;;;5.50;99.90;;;;;;4999084;28;20201;-80
2022/04/05 05:41:23;;;;;;;5.43;3.15;;;5.60;99.90;;;;;;4998500;28;20279;-80
2022/04/05 05:43:49;;;;;;;7.25;3.00;;;5.60;99.90;;;;;;5001919;28;20240;-80
2022/04/05 05:46:16;;;;;;;9.20;3.40;;;5.60;99.90;;;;;;5007626;28;20248;-77
2022/04/05 05:48:43;;;;;;;9.52;2.80;;;5.70;99.90;;;;;;5009180;28;20261;-78
2022/04/05 05:51:10;;;;;;;7.63;3.40;;;5.80;99.90;;;;;;5006762;28;20205;-80
2022/04/05 05:53:36;;;;;;;8.77;3.70;;;5.80;99.90;;;;;;5001054;28;20201;-79
2022/04/05 05:56:05;;;;;;;4.10;2.17;;;5.80;99.90;;;;;;4999751;28;20221;-80
2022/04/05 05:58:31;;;;;;;4.65;4.05;;;5.70;99.90;;;;;;5001041;28;20236;-81
2022/04/05 06:00:58;;;;;;;4.82;2.50;;;5.80;99.90;;;;;;5001971;28;20653;-80
2022/04/05 06:03:25;;;;;;;9.93;2.90;;;5.80;99.90;;;;;;5001268;28;20201;-80
2022/04/05 06:05:51;;;;;;;5.93;2.60;;;5.90;99.90;;;;;;5001454;28;20229;-79
2022/04/05 06:08:18;;;;;;;11.90;4.93;;;5.90;99.90;;;;;;5002638;28;20276;-78
2022/04/05 06:10:44;;;;;;;6.85;3.08;;;5.90;99.90;;;;;;5000796;28;20239;-78
2022/04/05 06:13:12;;;;;;;7.05;3.53;;;6.00;99.90;;;;;;5000454;28;20209;-80
2022/04/05 06:15:39;;;;;;;6.00;2.90;;;6.00;99.90;;;;;;5001846;28;20913;-79
2022/04/05 06:18:06;;;;;;;7.15;2.70;;;6.10;99.90;;;;;;5002888;28;20220;-80
2022/04/05 06:20:32;;;;;;;7.45;2.03;;;6.00;99.90;;;;;;5006622;28;20205;-79
2022/04/05 06:23:01;;;;;;;3.17;1.90;;;6.30;99.90;;;;;;5007741;28;20200;-77
2022/04/05 06:25:29;;;;;;;8.77;4.20;;;6.00;99.90;;;;;;5009418;28;20236;-77
2022/04/05 06:27:56;;;;;;;10.95;3.10;;;5.90;99.90;;;;;;5008713;28;20228;-79
2022/04/05 06:30:25;;;;;;;11.85;3.45;;;5.90;99.90;;;;;;5008942;28;20248;-79
2022/04/05 06:32:51;;;;;;;5.22;2.15;;;5.90;99.90;;;;;;5006515;28;20219;-79
2022/04/05 06:35:18;;;;;;;5.95;2.30;;;6.00;99.90;;;;;;5007596;28;20215;-78
2022/04/05 06:37:45;;;;;;;3.75;2.10;;;6.10;99.90;;;;;;5007297;28;20205;-79
2022/04/05 06:40:14;;;;;;;5.32;2.60;;;6.10;99.90;;;;;;5006803;28;20267;-81
2022/04/05 06:42:43;;;;;;;4.40;2.63;;;6.20;99.90;;;;;;5004128;28;20205;-79
2022/04/05 06:45:11;;;;;;;7.30;2.97;;;6.30;99.90;;;;;;5002310;28;20212;-79
2022/04/05 06:47:39;;;;;;;7.85;3.55;;;6.40;99.90;;;;;;5001300;28;20225;-79
2022/04/05 06:50:07;;;;;;;7.20;2.45;;;6.30;99.90;;;;;;5002811;28;20564;-79
2022/04/05 06:52:34;;;;;;;6.82;2.60;;;6.40;99.90;;;;;;5003436;28;20200;-78
2022/04/05 06:55:01;;;;;;;4.20;2.17;;;6.50;99.90;;;;;;5005604;28;20615;-80
2022/04/05 06:57:27;;;;;;;5.07;2.20;;;6.50;99.90;;;;;;5007363;28;20252;-80
2022/04/05 06:59:54;;;;;;;6.45;2.65;;;6.40;99.90;;;;;;5000813;28;20271;-80
2022/04/05 07:02:22;;;;;;;6.22;2.35;;;6.50;99.90;;;;;;5000302;28;20671;-79
2022/04/05 07:04:50;;;;;;;7.65;2.72;;;6.60;99.90;;;;;;4998579;28;20702;-80
2022/04/05 07:07:17;;;;;;;4.50;2.83;;;6.60;99.90;;;;;;4998048;28;20248;-80
2022/04/05 07:09:44;;;;;;;4.18;2.50;;;6.30;99.90;;;;;;4999733;28;20546;-79
2022/04/05 07:12:11;;;;;;;6.40;2.20;;;6.40;99.90;;;;;;4998951;28;20305;-79
2022/04/05 07:14:37;;;;;;;8.25;5.78;;;6.40;99.90;;;;;;4999112;28;20754;-78
2022/04/05 07:17:04;;;;;;;4.10;2.75;;;6.50;99.90;;;;;;5007142;28;20603;-79
2022/04/05 07:19:33;;;;;;;6.18;2.20;;;6.50;99.90;;;;;;5013661;28;20212;-79
2022/04/05 07:22:02;;;;;;;4.15;2.00;;;6.60;99.90;;;;;;5012846;28;20231;-79
2022/04/05 07:24:28;;;;;;;4.50;2.45;;;6.60;99.90;;;;;;4998901;28;20629;-80
2022/04/05 07:26:55;;;;;;;5.18;2.30;;;6.60;99.90;;;;;;4999439;28;20233;-80
2022/04/05 07:29:22;;;;;;;6.32;2.72;;;6.80;99.90;;;;;;4999946;28;20235;-78
2022/04/05 07:31:48;;;;;;;10.55;3.70;;;7.00;99.90;;;;;;5006940;28;20244;-79
2022/04/05 07:34:15;;;;;;;5.78;2.88;;;7.00;99.90;;;;;;5002806;28;20579;-80
2022/04/05 07:36:42;;;;;;;7.25;4.07;;;7.00;1.00;;;;;;5001255;28;20241;-79
2022/04/05 07:39:10;;;;;;;3.20;2.45;;;6.80;1.00;;;;;;5001418;28;20201;-80
2022/04/05 07:41:36;;;;;;;6.88;2.25;;;6.90;1.00;;;;;;4999872;28;20217;-80
2022/04/05 07:44:03;;;;;;;4.30;2.60;;;6.90;1.00;;;;;;5000597;28;20200;-79
2022/04/05 07:46:30;;;;;;;5.47;2.28;;;7.00;1.00;;;;;;4999118;28;20253;-78
2022/04/05 07:48:56;;;;;;;4.53;2.20;;;7.00;99.90;;;;;;4999697;28;20221;-79
2022/04/05 07:51:23;;;;;;;5.05;2.40;;;7.00;1.00;;;;;;5000881;28;20567;-79
2022/04/05 07:53:49;;;;;;;5.10;1.88;;;7.00;99.90;;;;;;5001986;28;20233;-79
2022/04/05 07:56:17;;;;;;;7.37;2.00;;;7.10;1.00;;;;;;5008264;28;20222;-78
2022/04/05 07:58:44;;;;;;;5.15;3.15;;;7.10;99.90;;;;;;5006110;28;20448;-78
2022/04/05 08:01:11;;;;;;;2.88;1.40;;;6.90;11.30;;;;;;5005433;28;20209;-79
2022/04/05 08:03:38;;;;;;;3.50;1.70;;;7.10;16.00;;;;;;4999798;28;20205;-79
2022/04/05 08:06:04;;;;;;;4.35;2.22;;;7.20;99.90;;;;;;5001985;28;20225;-79
2022/04/05 08:08:31;;;;;;;3.53;1.80;;;7.20;1.00;;;;;;5001989;28;20225;-79
2022/04/05 08:10:58;;;;;;;3.55;1.90;;;6.90;99.90;;;;;;4998719;28;20578;-79
2022/04/05 08:13:27;;;;;;;3.63;1.75;;;7.20;99.90;;;;;;5000717;28;20225;-80
2022/04/05 08:15:54;;;;;;;2.65;2.03;;;7.00;99.90;;;;;;4999696;28;20236;-79
2022/04/05 08:18:21;;;;;;;3.60;1.95;;;7.00;99.90;;;;;;5001925;28;20204;-79
2022/04/05 08:20:48;;;;;;;2.85;1.50;;;7.00;1.00;;;;;;4998773;28;20209;-80
2022/04/05 08:23:15;;;;;;;4.15;1.75;;;7.10;49.50;;;;;;4998738;28;20213;-80
2022/04/05 08:25:41;;;;;;;5.63;1.80;;;7.40;1.00;;;;;;4998592;28;20630;-79
2022/04/05 08:28:08;;;;;;;3.50;1.50;;;7.40;1.00;;;;;;5000172;28;20232;-80
2022/04/05 08:30:36;;;;;;;4.65;2.40;;;7.60;1.00;;;;;;4997778;28;20684;-79
2022/04/05 08:33:02;;;;;;;4.85;1.60;;;7.60;99.90;;;;;;4998186;28;20664;-79
2022/04/05 08:35:29;;;;;;;4.22;2.15;;;7.70;99.90;;;;;;5000785;28;20310;-78
2022/04/05 08:37:56;;;;;;;4.15;1.70;;;7.70;1.00;;;;;;5004822;28;20347;-78
2022/04/05 08:40:25;;;;;;;2.20;2.05;;;7.60;99.90;;;;;;5010316;28;20212;-80
2022/04/05 08:42:54;;;;;;;2.35;1.80;;;7.70;1.00;;;;;;5007490;28;20237;-80
2022/04/05 08:45:22;;;;;;;4.35;1.90;;;7.70;99.90;;;;;;5000437;28;20240;-79
2022/04/05 08:47:52;;;;;;;3.97;2.00;;;7.90;99.90;;;;;;4998858;28;20217;-79
2022/04/05 08:50:21;;;;;;;8.10;2.22;;;7.80;97.60;;;;;;5001921;28;20452;-79
2022/04/05 08:52:48;;;;;;;5.57;2.57;;;7.90;99.90;;;;;;5001393;28;20222;-80
2022/04/05 08:55:15;;;;;;;8.10;2.20;;;7.80;1.00;;;;;;4997937;28;20813;-79
2022/04/05 08:57:43;;;;;;;6.57;2.37;;;7.80;99.90;;;;;;4998005;28;20606;-79
2022/04/05 09:00:11;;;;;;;6.15;3.05;;;7.80;99.90;;;;;;4997460;28;20908;-79
2022/04/05 09:02:38;;;;;;;3.80;2.00;;;7.90;34.20;;;;;;4996741;28;20577;-80
2022/04/05 09:05:07;;;;;;;9.83;4.40;;;8.00;1.00;;;;;;5001098;28;20511;-79
2022/04/05 09:07:35;;;;;;;5.10;1.97;;;7.90;1.00;;;;;;5001225;28;20791;-80
2022/04/05 09:10:13;;;;;;;4.33;2.40;;;8.00;1.00;;;;;;4999220;28;20480;-78
2022/04/05 09:12:44;;;;;;;4.90;2.10;;;8.00;99.90;;;;;;4997023;28;20525;-80
2022/04/05 09:15:23;;;;;;;4.63;1.93;;;8.20;99.90;;;;;;4997228;28;20434;-80
2022/04/05 09:17:50;;;;;;;3.40;1.80;;;8.00;1.00;;;;;;5002545;28;20835;-79
2022/04/05 09:20:20;;;;;;;2.80;1.60;;;7.20;99.90;;;;;;5001394;28;20929;-80
2022/04/05 09:22:47;;;;;;;3.37;1.53;;;7.60;99.90;;;;;;5001578;28;20431;-80
2022/04/05 09:25:16;;;;;;;3.78;2.00;;;7.90;1.00;;;;;;5001726;28;20902;-79
2022/04/05 09:27:44;;;;;;;4.83;2.07;;;8.10;1.00;;;;;;5000545;28;20260;-79
2022/04/05 09:30:13;;;;;;;6.20;2.90;;;8.00;1.00;;;;;;5003292;28;20531;-79
2022/04/05 09:32:42;;;;;;;10.57;2.83;;;8.10;99.90;;;;;;5004460;28;20449;-80
2022/04/05 09:35:10;;;;;;;3.72;1.80;;;8.00;14.00;;;;;;5003740;28;20432;-80
2022/04/05 09:37:39;;;;;;;5.67;2.47;;;8.10;1.00;;;;;;5004452;28;20301;-79
2022/04/05 09:40:17;;;;;;;6.67;2.93;;;8.10;99.90;;;;;;5008829;28;20499;-79
2022/04/05 09:43:02;;;;;;;10.20;5.13;;;8.30;99.90;;;;;;5008163;28;20511;-79
2022/04/05 09:45:45;;;;;;;3.90;2.43;;;8.30;99.90;;;;;;5007923;28;20562;-79
2022/04/05 09:48:13;;;;;;;6.13;2.93;;;8.20;99.90;;;;;;5009208;28;20490;-79
2022/04/05 09:51:03;;;;;;;6.40;3.10;;;8.00;99.90;;;;;;5007097;28;20451;-80
2022/04/05 09:53:43;;;;;;;6.00;2.27;;;8.20;99.90;;;;;;5007550;28;20440;-79
2022/04/05 09:56:11;;;;;;;6.50;2.63;;;8.10;27.70;;;;;;5011059;28;20476;-79
2022/04/05 09:58:45;;;;;;;3.45;2.20;;;8.10;99.90;;;;;;5006640;28;20408;-80
2022/04/05 10:01:12;;;;;;;6.07;2.40;;;8.00;99.90;;;;;;5002406;28;20214;-80
2022/04/05 10:03:39;;;;;;;3.55;1.80;;;7.70;94.60;;;;;;5003720;28;20212;-80
2022/04/05 10:06:06;;;;;;;2.73;2.03;;;7.70;99.90;;;;;;5002327;28;20229;-79
2022/04/05 10:08:36;;;;;;;3.38;2.20;;;7.70;86.70;;;;;;5001407;28;20568;-80
2022/04/05 10:11:03;;;;;;;4.45;1.75;;;7.80;99.90;;;;;;4998884;28;20205;-80
2022/04/05 10:13:31;;;;;;;7.25;2.30;;;7.70;42.10;;;;;;5003424;28;20244;-79
2022/04/05 10:16:00;;;;;;;2.25;2.05;;;7.90;99.90;;;;;;5008452;28;20691;-79
2022/04/05 10:18:34;;;;;;;3.57;2.00;;;8.00;90.90;;;;;;5008242;28;20214;-79
2022/04/05 10:21:03;;;;;;;3.60;2.10;;;8.20;99.90;;;;;;5003572;28;20444;-79
2022/04/05 10:23:30;;;;;;;2.03;1.77;;;8.60;99.90;;;;;;5005916;28;20897;-78
2022/04/05 10:26:00;;;;;;;2.03;1.77;;;8.90;99.90;;;;;;5005562;28;20444;-79
2022/04/05 10:28:29;;;;;;;6.33;2.23;;;9.00;1.00;;;;;;5005784;28;20447;-78
2022/04/05 10:31:04;;;;;;;2.50;1.77;;;8.60;99.90;;;;;;5007470;28;20924;-80
2022/04/05 10:33:42;;;;;;;4.67;2.70;;;8.60;1.00;;;;;;5008825;28;20731;-78
2022/04/05 10:36:09;;;;;;;2.77;2.50;;;8.70;1.00;;;;;;5011119;28;20466;-77
2022/04/05 10:38:36;;;;;;;3.17;1.40;;;8.70;99.90;;;;;;5011961;28;20468;-77
2022/04/05 10:41:19;;;;;;;4.90;1.53;;;8.90;99.90;;;;;;5012010;28;20461;-78
2022/04/05 10:43:49;;;;;;;4.43;1.93;;;8.90;99.90;;;;;;5008263;28;20445;-80
2022/04/05 10:46:39;;;;;;;2.87;1.57;;;8.80;99.90;;;;;;5000466;28;20592;-80
2022/04/05 10:49:07;;;;;;;5.57;3.10;;;8.90;99.90;;;;;;5002862;28;20509;-79
2022/04/05 10:52:07;;;;;;;2.27;1.60;;;9.20;1.00;;;;;;5002569;28;20510;-80
2022/04/05 10:54:37;;;;;;;3.67;2.30;;;8.60;1.00;;;;;;4999549;28;20540;-79
2022/04/05 10:57:26;;;;;;;2.00;1.87;;;9.20;1.00;;;;;;4999311;28;20491;-80
2022/04/05 10:59:56;;;;;;;4.57;1.77;;;9.30;99.90;;;;;;5001049;28;20759;-80
2022/04/05 11:02:43;;;;;;;4.50;2.33;;;9.10;1.00;;;;;;5000681;28;20453;-80
2022/04/05 11:05:38;;;;;;;4.33;1.70;;;9.40;1.00;;;;;;5000751;28;20475;-80
2022/04/05 11:08:12;;;;;;;2.93;2.00;;;9.60;1.00;;;;;;4999025;28;20437;-80
2022/04/05 11:10:54;;;;;;;4.80;2.00;;;9.40;99.90;;;;;;5000051;28;20449;-80
2022/04/05 11:13:31;;;;;;;4.80;1.80;;;9.20;99.90;;;;;;4999505;28;20424;-80
2022/04/05 11:15:59;;;;;;;7.33;2.20;;;9.40;99.90;;;;;;4999708;28;20452;-80
2022/04/05 11:18:27;;;;;;;2.43;1.50;;;9.20;98.50;;;;;;4999487;28;21039;-80
2022/04/05 11:20:56;;;;;;;3.10;1.90;;;9.60;1.00;;;;;;4999385;28;20462;-79
2022/04/05 11:23:44;;;;;;;3.33;1.77;;;9.60;1.00;;;;;;4999603;28;20432;-80
2022/04/05 11:26:28;;;;;;;7.00;3.13;;;9.70;99.90;;;;;;5066331;23;20473;-83
2022/04/05 11:28:58;;;;;;;4.30;1.97;;;9.70;99.90;;;;;;5013966;28;20988;-83
2022/04/05 11:31:37;;;;;;;2.77;1.60;;;9.50;99.90;;;;;;5012972;28;20495;-83
2022/04/05 11:34:35;;;;;;;1.63;1.53;;;9.40;1.00;;;;;;5013181;28;20437;-84
2022/04/05 11:37:02;;;;;;;8.97;1.97;;;;;;;;;;5012090;28;20453;-84
2022/04/05 11:39:30;;;;;;;5.10;1.70;;;9.20;99.90;;;;;;5012549;28;20415;-83
2022/04/05 11:42:01;;;;;;;6.47;2.77;;;9.20;99.90;;;;;;5011485;28;20429;-83
2022/04/05 11:44:28;;;;;;;2.10;1.67;;;;;;;;;;5011997;28;20423;-83
2022/04/05 11:47:01;;;;;;;5.20;1.80;;;9.20;55.90;;;;;;5011894;28;20450;-84
2022/04/05 11:49:28;;;;;;;4.10;1.70;;;;;;;;;;5015445;28;20486;-83
2022/04/05 11:51:56;;;;;;;5.37;1.70;;;9.30;99.90;;;;;;5016938;28;20457;-83
2022/04/05 11:54:24;;;;;;;3.37;1.63;;;9.00;99.90;;;;;;5016960;28;20478;-83
2022/04/05 11:56:54;;;;;;;2.53;1.20;;;9.10;84.60;;;;;;5017109;28;20482;-83
2022/04/05 11:59:28;;;;;;;4.60;1.93;;;9.20;1.00;;;;;;5016938;28;20446;-84
2022/04/05 12:01:55;;;;;;;5.23;2.13;;;9.50;63.80;;;;;;5016285;28;20424;-84
2022/04/05 12:04:23;;;;;;;4.93;3.63;;;9.60;91.10;;;;;;5017510;28;20422;-83
2022/04/05 12:06:58;;;;;;;7.60;2.00;;;9.60;1.00;;;;;;5016691;28;20449;-82
2022/04/05 12:09:26;;;;;;;1.77;1.27;;;9.50;1.00;;;;;;5016309;28;20505;-83
2022/04/05 12:11:54;;;;;;;3.03;2.60;;;9.30;99.90;;;;;;5015551;28;20509;-82
2022/04/05 12:14:24;;;;;;;3.27;1.67;;;9.20;99.90;;;;;;5015423;28;20455;-83
2022/04/05 12:16:52;;;;;;;2.30;1.63;;;9.30;99.90;;;;;;5014960;28;20501;-83
2022/04/05 12:19:20;;;;;;;4.47;2.10;;;9.50;99.90;;;;;;5015657;28;20421;-83
2022/04/05 12:21:52;;;;;;;5.47;2.20;;;9.40;99.90;;;;;;5013674;28;20472;-83
2022/04/05 12:24:21;;;;;;;3.93;2.13;;;9.30;99.90;;;;;;5015335;28;20533;-84
2022/04/05 12:26:48;;;;;;;5.00;2.70;;;9.20;99.90;;;;;;5019029;28;20506;-83
2022/04/05 12:29:15;;;;;;;3.33;2.50;;;9.00;99.90;;;;;;5019234;28;20490;-82
2022/04/05 12:31:41;;;;;;;3.40;1.80;;;9.10;1.00;;;;;;5019135;28;20438;-83
2022/04/05 12:34:11;;;;;;;2.30;1.80;;;9.00;99.90;;;;;;5019133;28;20457;-83
2022/04/05 12:36:40;;;;;;;4.90;2.50;;;9.30;1.00;;;;;;5019020;28;20465;-82
2022/04/05 12:39:16;;;;;;;4.20;2.30;;;9.20;99.90;;;;;;5018855;28;20454;-82
2022/04/05 12:41:44;;;;;;;4.73;2.50;;;9.40;99.90;;;;;;5014332;28;20436;-84
2022/04/05 12:44:13;;;;;;;2.30;1.73;;;9.50;99.90;;;;;;5013262;28;20449;-82
2022/04/05 12:46:48;;;;;;;4.00;2.60;;;9.50;99.90;;;;;;5010278;28;20504;-83
2022/04/05 12:49:24;;;;;;;6.90;1.90;;;9.30;46.90;;;;;;5010248;28;20548;-83
2022/04/05 12:51:52;;;;;;;2.30;1.70;;;9.40;99.90;;;;;;5010885;28;20452;-83
2022/04/05 12:54:30;;;;;;;3.20;2.00;;;9.30;99.90;;;;;;5012722;28;20439;-84
2022/04/05 12:57:31;;;;;;;3.77;2.10;;;9.40;99.90;;;;;;5011173;28;20445;-83
2022/04/05 13:00:13;;;;;;;5.43;2.40;;;9.40;99.90;;;;;;5011526;28;20775;-83
2022/04/05 13:02:43;;;;;;;2.03;1.80;;;9.60;99.90;;;;;;5011376;28;20409;-82
2022/04/05 13:07:53;;;;;;;4.20;2.57;;;9.90;1.00;;;;;;5010650;28;20435;-83